Riccarton, New Zealand
Current Conditions -  °F | °C
As of 4:00 PM on Friday 19 Dec 2014 (Local Time) from NZCH Reporting Station
Clear Clear  
Wind Chill: 70°   Ceiling: Unl
Heat Index: 70°   Visibility: 6mi
Dew Point: 55°   Wind: 18mph
Humidity: 60%   Direction: 70°ENE
Pressure: 29.83"   Gusts: NA
Location:  43.53°S, 172.6°E
Report Text: NZCH 190400Z AUTO 07016KT 9999 NCD 21/13 Q1010 NOSIG
Loading
Personal Weather Stations






























Interactive Weather Map New forecast layout! Learn more

10-Day Weather Forecast

Advertisements
Track Severe Weather on mobile